CAMANCHE RESERVOIR (CMN)

Elevation: 236' · MOKELUMNE R basin · Operator: East Bay Municipal Utility District

Provisional data, subject to change.
Query executed Thursday at 8:15:10   clock

Select a sensor type for a plot of data.
Note: Reservoir Flows are daily averages.

Earlier

Date RES ELE    STORAGE    RES CHG    TOC STO    ABV TOC    OUTFLOW    INFLOW   
 FEET   AF   AF   AF   AF   CFS   CFS  
08/30/2016 218.47 298890 382 417100 -118210 275 514
08/31/2016 218.47 298890 -24 417100 -118210 268 314
09/01/2016 218.47 298890 -47 417100 -118210 249 320
09/02/2016 218.47 298890 15 417100 -- 237 322
09/03/2016 218.38 298310 -546 417100 -- 231 11
09/04/2016 218.30 297800 -516 417100 -- 226 11
09/05/2016 218.30 297800 -46 417100 -119300 225 281
09/06/2016 218.30 297800 36 417100 -119300 227 281
09/07/2016 218.30 297800 12 417100 -119300 226 275
09/08/2016 218.29 297740 -50 417100 -- 226 284
09/09/2016 218.30 297800 47 417100 -- 225 288
09/10/2016 218.21 297230 -609 417100 -- 224 11
09/11/2016 218.13 296720 -461 417100 -120380 224 11
09/12/2016 218.05 296210 -563 417100 -120890 226 11
09/13/2016 218.04 296150 -84 417100 -120950 226 287
09/14/2016 218.04 296150 -8 417100 -120950 226 288
09/15/2016 218.04 296150 -8 410800 -114650 225 283
09/16/2016 217.96 295640 -490 404500 -- 226 11
09/17/2016 217.89 295190 -479 398200 -- 225 11
09/18/2016 217.82 294750 -425 391900 -97150 216 11
09/19/2016 217.74 294240 -489 385600 -91360 210 11
09/20/2016 217.68 293860 -442 395671 -101811 211 11
09/21/2016 217.69 293920 100 392100 -98180 210 352
09/22/2016 217.60 293350 -532 388125 -94775 208 11
09/23/2016 217.50 292720 -611 373000 -- 201 11
09/24/2016 217.43 292270 -471 373000 -- 201 11
09/25/2016 217.36 291830 -387 373000 -81170 201 11
09/26/2016 217.29 291390 -435 373000 -81610 201 11
09/27/2016 217.23 291010 -343 373000 -81990 203 11
09/28/2016 217.15 290498 -512 -- -- 201 1
09/29/2016 -- -- -- -- -- -- --

Later | Latest

Warning! This data is preliminary and subject to revision.

Show CMN Map | Plot CMN Data | 1 Month CMN Data | Real-Time CMN Data | CMN Info